PWSweather.com
Personal Weather Stations
Station Observations
COONRAPIDS
Minneapolis, MN 55433

Minneapolis, MN 55433

Lat: 45.187721, Lon: -93.36828

Elevation: 898

Station Type: Davis Vantage Pro 2

High Low Average
Temperature 4.1°F-15.5°C -11.3°F-24.1°C -3.6°F-19.8°C
Dew Point -9.2°F-22.9°C -18.1°F-27.8°C -13.1°F-25.1°C
Winds 3.5 mph 5.6 kmh Calm Calm 1.0 mph W1.6 kmh W
Wind Gusts 8.1 mph13.0 kmh -- 2.0 mph3.2 kmh
Humidity 71% 49% 63%
Pressure 30.75 in1041.3 mb 30.35 in1027.8 mb -
Precipitation 0.00 in0.0 mm - -
Hour Temp Dew Point Humidity Winds Wind Gusts Pressure Precip Precip Rate Daily Precip Total
12:00 AM 0.6°F-17.4°C -7.8°F-22.1°C 67% 3.5 mph NNW5.6 kmh NNW 5.8 mph9.3 kmh 30.32 in1026.8 mb - 0.00 in0.0 mm 0.00 in0.0 mm
12:10 AM 0.3°F-17.6°C -7.8°F-22.1°C 68% 2.3 mph NNW3.7 kmh NNW 3.5 mph5.6 kmh 30.33 in1027.1 mb - 0.00 in0.0 mm 0.00 in0.0 mm
12:20 AM 0.0°F-17.8°C -8.1°F-22.3°C 68% Calm Calm 1.2 mph1.9 kmh 30.33 in1027.1 mb - 0.00 in0.0 mm 0.00 in0.0 mm
12:30 AM -0.3°F-17.9°C -8.4°F-22.4°C 68% 1.2 mph NW1.9 kmh NW 4.6 mph7.4 kmh 30.34 in1027.4 mb - 0.00 in0.0 mm 0.00 in0.0 mm
12:40 AM -0.5°F-18.1°C -8.6°F-22.6°C 68% Calm Calm 3.5 mph5.6 kmh 30.34 in1027.4 mb - 0.00 in0.0 mm 0.00 in0.0 mm
12:50 AM -0.9°F-18.3°C -8.9°F-22.7°C 68% 2.3 mph N3.7 kmh N 3.5 mph5.6 kmh 30.35 in1027.8 mb - 0.00 in0.0 mm 0.00 in0.0 mm
01:00 AM -1.2°F-18.4°C -9.2°F-22.9°C 68% 3.5 mph NNW5.6 kmh NNW 4.6 mph7.4 kmh 30.35 in1027.8 mb - 0.00 in0.0 mm 0.00 in0.0 mm
01:10 AM -1.5°F-18.6°C -9.5°F-23.1°C 68% 1.2 mph N1.9 kmh N 2.3 mph3.7 kmh 30.35 in1027.8 mb - 0.00 in0.0 mm 0.00 in0.0 mm
01:20 AM -1.8°F-18.8°C -10.1°F-23.4°C 67% 1.2 mph NW1.9 kmh NW 3.5 mph5.6 kmh 30.36 in1028.1 mb - 0.00 in0.0 mm 0.00 in0.0 mm
01:30 AM -2.1°F-18.9°C -10.4°F-23.6°C 67% 1.2 mph WNW1.9 kmh WNW 3.5 mph5.6 kmh 30.36 in1028.1 mb - 0.00 in0.0 mm 0.00 in0.0 mm
01:40 AM -2.5°F-19.2°C -10.5°F-23.6°C 68% 1.2 mph N1.9 kmh N 3.5 mph5.6 kmh 30.36 in1028.1 mb - 0.00 in0.0 mm 0.00 in0.0 mm
01:50 AM -2.8°F-19.3°C -11.1°F-23.9°C 67% Calm Calm 2.3 mph3.7 kmh 30.37 in1028.4 mb - 0.00 in0.0 mm 0.00 in0.0 mm
02:00 AM -3.1°F-19.5°C -11.0°F-23.9°C 68% 2.3 mph NNW3.7 kmh NNW 4.6 mph7.4 kmh 30.38 in1028.8 mb - 0.00 in0.0 mm 0.00 in0.0 mm
02:10 AM -3.4°F-19.7°C -11.3°F-24.1°C 68% 1.2 mph NNW1.9 kmh NNW 2.3 mph3.7 kmh 30.38 in1028.8 mb - 0.00 in0.0 mm 0.00 in0.0 mm
02:20 AM -3.6°F-19.8°C -11.6°F-24.2°C 68% Calm Calm 1.2 mph1.9 kmh 30.38 in1028.8 mb - 0.00 in0.0 mm 0.00 in0.0 mm
02:30 AM -4.0°F-20.0°C -11.9°F-24.4°C 68% 2.3 mph NW3.7 kmh NW 3.5 mph5.6 kmh 30.38 in1028.8 mb - 0.00 in0.0 mm 0.00 in0.0 mm
02:40 AM -4.3°F-20.2°C -12.2°F-24.6°C 68% 1.2 mph NW1.9 kmh NW 3.5 mph5.6 kmh 30.39 in1029.1 mb - 0.00 in0.0 mm 0.00 in0.0 mm
02:50 AM -4.5°F-20.3°C -12.4°F-24.7°C 68% Calm Calm 2.3 mph3.7 kmh 30.39 in1029.1 mb - 0.00 in0.0 mm 0.00 in0.0 mm
03:00 AM -4.7°F-20.4°C -12.6°F-24.8°C 68% 2.3 mph NW3.7 kmh NW 5.8 mph9.3 kmh 30.41 in1029.8 mb - 0.00 in0.0 mm 0.00 in0.0 mm
03:10 AM -4.9°F-20.5°C -13.1°F-25.1°C 67% Calm Calm 1.2 mph1.9 kmh 30.42 in1030.1 mb - 0.00 in0.0 mm 0.00 in0.0 mm
03:20 AM -5.1°F-20.6°C -13.0°F-25.0°C 68% Calm Calm 3.5 mph5.6 kmh 30.43 in1030.5 mb - 0.00 in0.0 mm 0.00 in0.0 mm
03:30 AM -5.4°F-20.8°C -13.5°F-25.3°C 67% 2.3 mph N3.7 kmh N 3.5 mph5.6 kmh 30.43 in1030.5 mb - 0.00 in0.0 mm 0.00 in0.0 mm
03:40 AM -5.7°F-20.9°C -13.8°F-25.4°C 67% 1.2 mph NNW1.9 kmh NNW 3.5 mph5.6 kmh 30.43 in1030.5 mb - 0.00 in0.0 mm 0.00 in0.0 mm
03:50 AM -5.9°F-21.1°C -14.0°F-25.6°C 67% 1.2 mph NNW1.9 kmh NNW 3.5 mph5.6 kmh 30.43 in1030.5 mb - 0.00 in0.0 mm 0.00 in0.0 mm
04:00 AM -6.1°F-21.2°C -14.2°F-25.7°C 67% Calm Calm 2.3 mph3.7 kmh 30.43 in1030.5 mb - 0.00 in0.0 mm 0.00 in0.0 mm
04:10 AM -6.3°F-21.3°C -14.1°F-25.6°C 68% 1.2 mph NW1.9 kmh NW 2.3 mph3.7 kmh 30.43 in1030.5 mb - 0.00 in0.0 mm 0.00 in0.0 mm
04:20 AM -6.5°F-21.4°C -14.3°F-25.7°C 68% Calm Calm 2.3 mph3.7 kmh 30.44 in1030.8 mb - 0.00 in0.0 mm 0.00 in0.0 mm
04:30 AM -6.7°F-21.5°C -14.5°F-25.8°C 68% 1.2 mph N1.9 kmh N 2.3 mph3.7 kmh 30.44 in1030.8 mb - 0.00 in0.0 mm 0.00 in0.0 mm
04:40 AM -6.9°F-21.6°C -14.7°F-25.9°C 68% 2.3 mph NW3.7 kmh NW 5.8 mph9.3 kmh 30.45 in1031.2 mb - 0.00 in0.0 mm 0.00 in0.0 mm
04:50 AM -7.1°F-21.7°C -14.9°F-26.1°C 68% 1.2 mph N1.9 kmh N 4.6 mph7.4 kmh 30.45 in1031.2 mb - 0.00 in0.0 mm 0.00 in0.0 mm
05:00 AM -7.3°F-21.8°C -15.1°F-26.2°C 68% 1.2 mph N1.9 kmh N 3.5 mph5.6 kmh 30.46 in1031.5 mb - 0.00 in0.0 mm 0.00 in0.0 mm
05:10 AM -7.6°F-22.0°C -15.3°F-26.3°C 68% 1.2 mph NNW1.9 kmh NNW 3.5 mph5.6 kmh 30.46 in1031.5 mb - 0.00 in0.0 mm 0.00 in0.0 mm
05:20 AM -7.8°F-22.1°C -15.3°F-26.3°C 69% 1.2 mph N1.9 kmh N 3.5 mph5.6 kmh 30.46 in1031.5 mb - 0.00 in0.0 mm 0.00 in0.0 mm
05:30 AM -8.0°F-22.2°C -15.5°F-26.4°C 69% 2.3 mph N3.7 kmh N 3.5 mph5.6 kmh 30.46 in1031.5 mb - 0.00 in0.0 mm 0.00 in0.0 mm
05:40 AM -8.1°F-22.3°C -15.6°F-26.4°C 69% 2.3 mph NNE3.7 kmh NNE 3.5 mph5.6 kmh 30.46 in1031.5 mb - 0.00 in0.0 mm 0.00 in0.0 mm
05:50 AM -8.2°F-22.3°C -15.7°F-26.5°C 69% 1.2 mph N1.9 kmh N 2.3 mph3.7 kmh 30.47 in1031.8 mb - 0.00 in0.0 mm 0.00 in0.0 mm
06:00 AM -8.4°F-22.4°C -15.9°F-26.6°C 69% 1.2 mph WNW1.9 kmh WNW -- 30.48 in1032.2 mb - 0.00 in0.0 mm 0.00 in0.0 mm
06:10 AM -8.6°F-22.6°C -16.1°F-26.7°C 69% Calm Calm -- 30.48 in1032.2 mb - 0.00 in0.0 mm 0.00 in0.0 mm
06:20 AM -8.9°F-22.7°C -16.3°F-26.8°C 69% 1.2 mph N1.9 kmh N 3.5 mph5.6 kmh 30.48 in1032.2 mb - 0.00 in0.0 mm 0.00 in0.0 mm
06:30 AM -9.1°F-22.8°C -16.2°F-26.8°C 70% Calm Calm -- 30.49 in1032.5 mb - 0.00 in0.0 mm 0.00 in0.0 mm
06:40 AM -9.1°F-22.8°C -16.2°F-26.8°C 70% Calm Calm 3.5 mph5.6 kmh 30.50 in1032.8 mb - 0.00 in0.0 mm 0.00 in0.0 mm
06:50 AM -9.3°F-22.9°C -16.4°F-26.9°C 70% Calm Calm 2.3 mph3.7 kmh 30.50 in1032.8 mb - 0.00 in0.0 mm 0.00 in0.0 mm
07:00 AM -9.5°F-23.1°C -16.6°F-27.0°C 70% Calm Calm -- 30.50 in1032.8 mb - 0.00 in0.0 mm 0.00 in0.0 mm
07:10 AM -9.7°F-23.2°C -16.8°F-27.1°C 70% Calm Calm -- 30.51 in1033.2 mb - 0.00 in0.0 mm 0.00 in0.0 mm
07:20 AM -9.8°F-23.2°C -16.9°F-27.2°C 70% Calm Calm 2.3 mph3.7 kmh 30.52 in1033.5 mb - 0.00 in0.0 mm 0.00 in0.0 mm
07:30 AM -9.9°F-23.3°C -17.0°F-27.2°C 70% Calm Calm -- 30.52 in1033.5 mb - 0.00 in0.0 mm 0.00 in0.0 mm
07:40 AM -10.0°F-23.3°C -17.1°F-27.3°C 70% 1.2 mph WNW1.9 kmh WNW 2.3 mph3.7 kmh 30.53 in1033.9 mb - 0.00 in0.0 mm 0.00 in0.0 mm
07:50 AM -10.1°F-23.4°C -17.2°F-27.3°C 70% Calm Calm -- 30.54 in1034.2 mb - 0.00 in0.0 mm 0.00 in0.0 mm
08:00 AM -10.4°F-23.6°C -17.4°F-27.4°C 70% 1.2 mph NW1.9 kmh NW 3.5 mph5.6 kmh 30.54 in1034.2 mb - 0.00 in0.0 mm 0.00 in0.0 mm
08:10 AM -10.5°F-23.6°C -17.6°F-27.6°C 70% 1.2 mph NW1.9 kmh NW 2.3 mph3.7 kmh 30.54 in1034.2 mb - 0.00 in0.0 mm 0.00 in0.0 mm
08:20 AM -10.7°F-23.7°C -17.5°F-27.5°C 71% Calm Calm 2.3 mph3.7 kmh 30.55 in1034.5 mb - 0.00 in0.0 mm 0.00 in0.0 mm
08:30 AM -10.8°F-23.8°C -17.6°F-27.6°C 71% Calm Calm -- 30.55 in1034.5 mb - 0.00 in0.0 mm 0.00 in0.0 mm
08:40 AM -11.0°F-23.9°C -17.8°F-27.7°C 71% Calm Calm 1.2 mph1.9 kmh 30.56 in1034.9 mb - 0.00 in0.0 mm 0.00 in0.0 mm
08:50 AM -11.2°F-24.0°C -18.0°F-27.8°C 71% Calm Calm -- 30.56 in1034.9 mb - 0.00 in0.0 mm 0.00 in0.0 mm
09:00 AM -11.3°F-24.1°C -18.1°F-27.8°C 71% 1.2 mph NW1.9 kmh NW 3.5 mph5.6 kmh 30.56 in1034.9 mb - 0.00 in0.0 mm 0.00 in0.0 mm
09:10 AM -11.3°F-24.1°C -18.1°F-27.8°C 71% Calm Calm 2.3 mph3.7 kmh 30.56 in1034.9 mb - 0.00 in0.0 mm 0.00 in0.0 mm
09:20 AM -11.2°F-24.0°C -18.0°F-27.8°C 71% Calm Calm -- 30.57 in1035.2 mb - 0.00 in0.0 mm 0.00 in0.0 mm
09:30 AM -11.2°F-24.0°C -18.0°F-27.8°C 71% 1.2 mph NNE1.9 kmh NNE 3.5 mph5.6 kmh 30.57 in1035.2 mb - 0.00 in0.0 mm 0.00 in0.0 mm
09:40 AM -11.1°F-23.9°C -17.9°F-27.7°C 71% Calm Calm 3.5 mph5.6 kmh 30.57 in1035.2 mb - 0.00 in0.0 mm 0.00 in0.0 mm
09:50 AM -10.8°F-23.8°C -17.6°F-27.6°C 71% Calm Calm 2.3 mph3.7 kmh 30.58 in1035.6 mb - 0.00 in0.0 mm 0.00 in0.0 mm
10:00 AM -10.3°F-23.5°C -17.4°F-27.4°C 70% 1.2 mph NNE1.9 kmh NNE 2.3 mph3.7 kmh 30.59 in1035.9 mb - 0.00 in0.0 mm 0.00 in0.0 mm
10:10 AM -9.7°F-23.2°C -17.1°F-27.3°C 69% 1.2 mph N1.9 kmh N 2.3 mph3.7 kmh 30.60 in1036.2 mb - 0.00 in0.0 mm 0.00 in0.0 mm
10:20 AM -9.2°F-22.9°C -16.9°F-27.2°C 68% 1.2 mph N1.9 kmh N 2.3 mph3.7 kmh 30.60 in1036.2 mb - 0.00 in0.0 mm 0.00 in0.0 mm
10:30 AM -8.6°F-22.6°C -16.6°F-27.0°C 67% 1.2 mph NNW1.9 kmh NNW 3.5 mph5.6 kmh 30.61 in1036.6 mb - 0.00 in0.0 mm 0.00 in0.0 mm
10:40 AM -8.2°F-22.3°C -16.5°F-26.9°C 66% Calm Calm 2.3 mph3.7 kmh 30.61 in1036.6 mb - 0.00 in0.0 mm 0.00 in0.0 mm
10:50 AM -7.9°F-22.2°C -16.2°F-26.8°C 66% 2.3 mph N3.7 kmh N 3.5 mph5.6 kmh 30.61 in1036.6 mb - 0.00 in0.0 mm 0.00 in0.0 mm
11:00 AM -7.5°F-21.9°C -16.2°F-26.8°C 65% Calm Calm 3.5 mph5.6 kmh 30.61 in1036.6 mb - 0.00 in0.0 mm 0.00 in0.0 mm
11:10 AM -7.1°F-21.7°C -15.8°F-26.6°C 65% Calm Calm 1.2 mph1.9 kmh 30.62 in1036.9 mb - 0.00 in0.0 mm 0.00 in0.0 mm
11:20 AM -6.4°F-21.3°C -15.2°F-26.2°C 65% Calm Calm -- 30.62 in1036.9 mb - 0.00 in0.0 mm 0.00 in0.0 mm
11:30 AM -5.8°F-21.0°C -14.8°F-26.0°C 64% 2.3 mph NE3.7 kmh NE 3.5 mph5.6 kmh 30.62 in1036.9 mb - 0.00 in0.0 mm 0.00 in0.0 mm
11:40 AM -5.5°F-20.8°C -15.2°F-26.2°C 62% 1.2 mph NE1.9 kmh NE 2.3 mph3.7 kmh 30.62 in1036.9 mb - 0.00 in0.0 mm 0.00 in0.0 mm
11:50 AM -4.9°F-20.5°C -14.3°F-25.7°C 63% Calm Calm -- 30.63 in1037.3 mb - 0.00 in0.0 mm 0.00 in0.0 mm
12:00 PM -4.2°F-20.1°C -13.9°F-25.5°C 62% Calm Calm -- 30.62 in1036.9 mb - 0.00 in0.0 mm 0.00 in0.0 mm
12:10 PM -3.5°F-19.7°C -13.6°F-25.3°C 61% Calm Calm -- 30.62 in1036.9 mb - 0.00 in0.0 mm 0.00 in0.0 mm
12:20 PM -2.9°F-19.4°C -13.4°F-25.2°C 60% Calm Calm 3.5 mph5.6 kmh 30.63 in1037.3 mb - 0.00 in0.0 mm 0.00 in0.0 mm
12:30 PM -2.0°F-18.9°C -12.8°F-24.9°C 59% 1.2 mph NE1.9 kmh NE 3.5 mph5.6 kmh 30.62 in1036.9 mb - 0.00 in0.0 mm 0.00 in0.0 mm
12:40 PM -0.8°F-18.2°C -11.7°F-24.3°C 59% Calm Calm -- 30.63 in1037.3 mb - 0.00 in0.0 mm 0.00 in0.0 mm
12:50 PM -1.0°F-18.3°C -12.9°F-24.9°C 56% Calm Calm 2.3 mph3.7 kmh 30.63 in1037.3 mb - 0.00 in0.0 mm 0.00 in0.0 mm
01:00 PM -0.9°F-18.3°C -12.5°F-24.7°C 57% Calm Calm 3.5 mph5.6 kmh 30.63 in1037.3 mb - 0.00 in0.0 mm 0.00 in0.0 mm
01:10 PM -0.6°F-18.1°C -12.6°F-24.8°C 56% 2.3 mph NW3.7 kmh NW 5.8 mph9.3 kmh 30.63 in1037.3 mb - 0.00 in0.0 mm 0.00 in0.0 mm
01:20 PM -0.7°F-18.2°C -12.7°F-24.8°C 56% 2.3 mph NW3.7 kmh NW 4.6 mph7.4 kmh 30.62 in1036.9 mb - 0.00 in0.0 mm 0.00 in0.0 mm
01:30 PM 0.0°F-17.8°C -11.6°F-24.2°C 57% 2.3 mph NW3.7 kmh NW 3.5 mph5.6 kmh 30.62 in1036.9 mb - 0.00 in0.0 mm 0.00 in0.0 mm
01:40 PM 0.4°F-17.6°C -11.6°F-24.2°C 56% 3.5 mph N5.6 kmh N 3.5 mph5.6 kmh 30.62 in1036.9 mb - 0.00 in0.0 mm 0.00 in0.0 mm
01:50 PM 0.2°F-17.7°C -11.8°F-24.3°C 56% 1.2 mph NW1.9 kmh NW 4.6 mph7.4 kmh 30.61 in1036.6 mb - 0.00 in0.0 mm 0.00 in0.0 mm
02:00 PM 0.5°F-17.5°C -11.9°F-24.4°C 55% 1.2 mph NNW1.9 kmh NNW 2.3 mph3.7 kmh 30.61 in1036.6 mb - 0.00 in0.0 mm 0.00 in0.0 mm
02:10 PM 1.5°F-16.9°C -11.0°F-23.9°C 55% 1.2 mph N1.9 kmh N 3.5 mph5.6 kmh 30.61 in1036.6 mb - 0.00 in0.0 mm 0.00 in0.0 mm
02:20 PM 1.8°F-16.8°C -11.4°F-24.1°C 53% Calm Calm -- 30.61 in1036.6 mb - 0.00 in0.0 mm 0.00 in0.0 mm
02:30 PM 2.2°F-16.6°C -10.7°F-23.7°C 54% Calm Calm -- 30.60 in1036.2 mb - 0.00 in0.0 mm 0.00 in0.0 mm
02:40 PM 2.3°F-16.5°C -11.0°F-23.9°C 53% 1.2 mph N1.9 kmh N 3.5 mph5.6 kmh 30.60 in1036.2 mb - 0.00 in0.0 mm 0.00 in0.0 mm
02:50 PM 2.5°F-16.4°C -10.8°F-23.8°C 53% Calm Calm -- 30.60 in1036.2 mb - 0.00 in0.0 mm 0.00 in0.0 mm
03:00 PM 3.0°F-16.1°C -10.7°F-23.7°C 52% 2.3 mph NE3.7 kmh NE 6.9 mph11.1 kmh 30.60 in1036.2 mb - 0.00 in0.0 mm 0.00 in0.0 mm
03:10 PM 2.8°F-16.2°C -10.9°F-23.8°C 52% 1.2 mph NNE1.9 kmh NNE 3.5 mph5.6 kmh 30.60 in1036.2 mb - 0.00 in0.0 mm 0.00 in0.0 mm
03:20 PM 3.3°F-15.9°C -10.4°F-23.6°C 52% 2.3 mph N3.7 kmh N 4.6 mph7.4 kmh 30.60 in1036.2 mb - 0.00 in0.0 mm 0.00 in0.0 mm
03:30 PM 3.4°F-15.9°C -10.7°F-23.7°C 51% 1.2 mph NW1.9 kmh NW 3.5 mph5.6 kmh 30.61 in1036.6 mb - 0.00 in0.0 mm 0.00 in0.0 mm
03:40 PM 3.7°F-15.7°C -10.4°F-23.6°C 51% 1.2 mph NNW1.9 kmh NNW 4.6 mph7.4 kmh 30.62 in1036.9 mb - 0.00 in0.0 mm 0.00 in0.0 mm
03:50 PM 3.8°F-15.7°C -11.2°F-24.0°C 49% 1.2 mph NNW1.9 kmh NNW 2.3 mph3.7 kmh 30.62 in1036.9 mb - 0.00 in0.0 mm 0.00 in0.0 mm
04:00 PM 4.1°F-15.5°C -10.5°F-23.6°C 50% Calm Calm 3.5 mph5.6 kmh 30.63 in1037.3 mb - 0.00 in0.0 mm 0.00 in0.0 mm
04:10 PM 3.8°F-15.7°C -11.1°F-23.9°C 49% Calm Calm 2.3 mph3.7 kmh 30.63 in1037.3 mb - 0.00 in0.0 mm 0.00 in0.0 mm
04:20 PM 3.3°F-15.9°C -11.2°F-24.0°C 50% 2.3 mph NW3.7 kmh NW 4.6 mph7.4 kmh 30.64 in1037.6 mb - 0.00 in0.0 mm 0.00 in0.0 mm
04:30 PM 3.1°F-16.1°C -11.4°F-24.1°C 50% 2.3 mph NW3.7 kmh NW 3.5 mph5.6 kmh 30.64 in1037.6 mb - 0.00 in0.0 mm 0.00 in0.0 mm
04:40 PM 3.2°F-16.0°C -11.3°F-24.1°C 50% 2.3 mph NW3.7 kmh NW 6.9 mph11.1 kmh 30.65 in1037.9 mb - 0.00 in0.0 mm 0.00 in0.0 mm
04:50 PM 3.3°F-15.9°C -11.2°F-24.0°C 50% Calm Calm 2.3 mph3.7 kmh 30.65 in1037.9 mb - 0.00 in0.0 mm 0.00 in0.0 mm
05:00 PM 3.5°F-15.8°C -11.0°F-23.9°C 50% 2.3 mph NW3.7 kmh NW 8.1 mph13.0 kmh 30.66 in1038.3 mb - 0.00 in0.0 mm 0.00 in0.0 mm
05:10 PM 3.5°F-15.8°C -10.6°F-23.7°C 51% 1.2 mph NW1.9 kmh NW 2.3 mph3.7 kmh 30.66 in1038.3 mb - 0.00 in0.0 mm 0.00 in0.0 mm
05:20 PM 3.5°F-15.8°C -10.6°F-23.7°C 51% 1.2 mph WNW1.9 kmh WNW 4.6 mph7.4 kmh 30.66 in1038.3 mb - 0.00 in0.0 mm 0.00 in0.0 mm
05:30 PM 3.3°F-15.9°C -11.2°F-24.0°C 50% Calm Calm -- 30.66 in1038.3 mb - 0.00 in0.0 mm 0.00 in0.0 mm
05:40 PM 3.0°F-16.1°C -11.1°F-23.9°C 51% Calm Calm -- 30.67 in1038.6 mb - 0.00 in0.0 mm 0.00 in0.0 mm
05:50 PM 2.6°F-16.3°C -11.1°F-23.9°C 52% 1.2 mph WNW1.9 kmh WNW 3.5 mph5.6 kmh 30.67 in1038.6 mb - 0.00 in0.0 mm 0.00 in0.0 mm
06:00 PM 2.3°F-16.5°C -10.2°F-23.4°C 55% Calm Calm -- 30.68 in1038.9 mb - 0.00 in0.0 mm 0.00 in0.0 mm
06:10 PM 1.8°F-16.8°C -10.3°F-23.5°C 56% Calm Calm -- 30.68 in1038.9 mb - 0.00 in0.0 mm 0.00 in0.0 mm
06:20 PM 1.4°F-17.0°C -10.3°F-23.5°C 57% Calm Calm -- 30.69 in1039.3 mb - 0.00 in0.0 mm 0.00 in0.0 mm
06:30 PM 1.1°F-17.2°C -10.3°F-23.5°C 58% Calm Calm -- 30.70 in1039.6 mb - 0.00 in0.0 mm 0.00 in0.0 mm
06:40 PM 0.9°F-17.3°C -10.4°F-23.6°C 58% Calm Calm 3.5 mph5.6 kmh 30.70 in1039.6 mb - 0.00 in0.0 mm 0.00 in0.0 mm
06:50 PM 0.8°F-17.3°C -10.5°F-23.6°C 58% 2.3 mph WNW3.7 kmh WNW 6.9 mph11.1 kmh 30.70 in1039.6 mb - 0.00 in0.0 mm 0.00 in0.0 mm
07:00 PM 0.6°F-17.4°C -10.7°F-23.7°C 58% 1.2 mph WNW1.9 kmh WNW 3.5 mph5.6 kmh 30.71 in1040.0 mb - 0.00 in0.0 mm 0.00 in0.0 mm
07:10 PM 0.4°F-17.6°C -11.3°F-24.1°C 57% Calm Calm -- 30.71 in1040.0 mb - 0.00 in0.0 mm 0.00 in0.0 mm
07:20 PM 0.0°F-17.8°C -11.3°F-24.1°C 58% Calm Calm -- 30.71 in1040.0 mb - 0.00 in0.0 mm 0.00 in0.0 mm
07:30 PM -0.3°F-17.9°C -11.6°F-24.2°C 58% Calm Calm -- 30.71 in1040.0 mb - 0.00 in0.0 mm 0.00 in0.0 mm
07:40 PM -0.6°F-18.1°C -11.5°F-24.2°C 59% Calm Calm -- 30.72 in1040.3 mb - 0.00 in0.0 mm 0.00 in0.0 mm
07:50 PM -0.9°F-18.3°C -11.5°F-24.2°C 60% Calm Calm -- 30.72 in1040.3 mb - 0.00 in0.0 mm 0.00 in0.0 mm
08:00 PM -1.2°F-18.4°C -11.4°F-24.1°C 61% Calm Calm -- 30.72 in1040.3 mb - 0.00 in0.0 mm 0.00 in0.0 mm
08:10 PM -1.4°F-18.6°C -11.6°F-24.2°C 61% Calm Calm -- 30.72 in1040.3 mb - 0.00 in0.0 mm 0.00 in0.0 mm
08:20 PM -1.7°F-18.7°C -11.6°F-24.2°C 62% Calm Calm -- 30.72 in1040.3 mb - 0.00 in0.0 mm 0.00 in0.0 mm
08:30 PM -1.8°F-18.8°C -11.3°F-24.1°C 63% Calm Calm -- 30.72 in1040.3 mb - 0.00 in0.0 mm 0.00 in0.0 mm
08:40 PM -1.8°F-18.8°C -11.3°F-24.1°C 63% Calm Calm -- 30.72 in1040.3 mb - 0.00 in0.0 mm 0.00 in0.0 mm
08:50 PM -2.2°F-19.0°C -11.4°F-24.1°C 64% Calm Calm -- 30.73 in1040.6 mb - 0.00 in0.0 mm 0.00 in0.0 mm
09:00 PM -3.0°F-19.4°C -11.8°F-24.3°C 65% Calm Calm -- 30.73 in1040.6 mb - 0.00 in0.0 mm 0.00 in0.0 mm
09:10 PM -3.6°F-19.8°C -12.1°F-24.5°C 66% Calm Calm -- 30.73 in1040.6 mb - 0.00 in0.0 mm 0.00 in0.0 mm
09:20 PM -3.7°F-19.8°C -11.6°F-24.2°C 68% Calm Calm -- 30.73 in1040.6 mb - 0.00 in0.0 mm 0.00 in0.0 mm
09:30 PM -3.9°F-19.9°C -11.8°F-24.3°C 68% Calm Calm -- 30.73 in1040.6 mb - 0.00 in0.0 mm 0.00 in0.0 mm
09:40 PM -4.3°F-20.2°C -11.9°F-24.4°C 69% Calm Calm -- 30.73 in1040.6 mb - 0.00 in0.0 mm 0.00 in0.0 mm
09:50 PM -4.6°F-20.3°C -11.9°F-24.4°C 70% Calm Calm -- 30.73 in1040.6 mb - 0.00 in0.0 mm 0.00 in0.0 mm
10:00 PM -4.3°F-20.2°C -11.6°F-24.2°C 70% Calm Calm -- 30.74 in1041.0 mb - 0.00 in0.0 mm 0.00 in0.0 mm
10:10 PM -3.7°F-19.8°C -11.3°F-24.1°C 69% Calm Calm -- 30.73 in1040.6 mb - 0.00 in0.0 mm 0.00 in0.0 mm
10:20 PM -3.2°F-19.6°C -11.1°F-23.9°C 68% Calm Calm -- 30.73 in1040.6 mb - 0.00 in0.0 mm 0.00 in0.0 mm
10:30 PM -3.0°F-19.4°C -11.2°F-24.0°C 67% Calm Calm -- 30.73 in1040.6 mb - 0.00 in0.0 mm 0.00 in0.0 mm
10:40 PM -3.0°F-19.4°C -11.5°F-24.2°C 66% Calm Calm -- 30.74 in1041.0 mb - 0.00 in0.0 mm 0.00 in0.0 mm
10:50 PM -2.8°F-19.3°C -11.4°F-24.1°C 66% Calm Calm -- 30.73 in1040.6 mb - 0.00 in0.0 mm 0.00 in0.0 mm
11:00 PM -3.0°F-19.4°C -11.5°F-24.2°C 66% Calm Calm -- 30.73 in1040.6 mb - 0.00 in0.0 mm 0.00 in0.0 mm
11:10 PM -3.0°F-19.4°C -11.5°F-24.2°C 66% Calm Calm -- 30.74 in1041.0 mb - 0.00 in0.0 mm 0.00 in0.0 mm
11:20 PM -2.9°F-19.4°C -11.5°F-24.2°C 66% Calm Calm 2.3 mph3.7 kmh 30.74 in1041.0 mb - 0.00 in0.0 mm 0.00 in0.0 mm
11:30 PM -2.7°F-19.3°C -11.3°F-24.1°C 66% 2.3 mph NW3.7 kmh NW 3.5 mph5.6 kmh 30.75 in1041.3 mb - 0.00 in0.0 mm 0.00 in0.0 mm
11:40 PM -2.3°F-19.1°C -11.5°F-24.2°C 64% Calm Calm 2.3 mph3.7 kmh 30.75 in1041.3 mb - 0.00 in0.0 mm 0.00 in0.0 mm
11:50 PM -2.5°F-19.2°C -11.7°F-24.3°C 64% 2.3 mph NW3.7 kmh NW 3.5 mph5.6 kmh 30.75 in1041.3 mb - 0.00 in0.0 mm 0.00 in0.0 mm